sensor_id;sensor_type;location;lat;lon;timestamp;temperature;humidity
20319;DHT22;10317;47.254;11.314;2024-01-15T00:00:39;-2.80;99.90
20319;DHT22;10317;47.254;11.314;2024-01-15T00:03:05;-2.90;99.90
20319;DHT22;10317;47.254;11.314;2024-01-15T00:05:30;-2.80;99.90
20319;DHT22;10317;47.254;11.314;2024-01-15T00:07:56;-2.80;99.90
20319;DHT22;10317;47.254;11.314;2024-01-15T00:10:21;-2.90;99.90
20319;DHT22;10317;47.254;11.314;2024-01-15T00:12:47;-2.90;99.90
20319;DHT22;10317;47.254;11.314;2024-01-15T00:15:13;-3.00;99.90
20319;DHT22;10317;47.254;11.314;2024-01-15T00:17:39;-3.00;99.90
20319;DHT22;10317;47.254;11.314;2024-01-15T00:20:05;-3.10;99.90
20319;DHT22;10317;47.254;11.314;2024-01-15T00:22:31;-3.10;99.90
20319;DHT22;10317;47.254;11.314;2024-01-15T00:24:57;-3.10;99.90
20319;DHT22;10317;47.254;11.314;2024-01-15T00:27:23;-3.10;99.90
20319;DHT22;10317;47.254;11.314;2024-01-15T00:29:49;-3.20;99.90
20319;DHT22;10317;47.254;11.314;2024-01-15T00:32:17;-3.20;99.90
20319;DHT22;10317;47.254;11.314;2024-01-15T00:34:42;-3.30;99.90
20319;DHT22;10317;47.254;11.314;2024-01-15T00:37:08;-3.30;99.90
20319;DHT22;10317;47.254;11.314;2024-01-15T00:39:33;-3.30;99.90
20319;DHT22;10317;47.254;11.314;2024-01-15T00:41:59;-3.30;99.90
20319;DHT22;10317;47.254;11.314;2024-01-15T00:44:25;-3.30;99.90
20319;DHT22;10317;47.254;11.314;2024-01-15T00:46:50;-3.30;99.90
20319;DHT22;10317;47.254;11.314;2024-01-15T00:49:16;-3.30;99.90
20319;DHT22;10317;47.254;11.314;2024-01-15T00:51:42;-3.30;99.90
20319;DHT22;10317;47.254;11.314;2024-01-15T00:54:08;-3.30;99.90
20319;DHT22;10317;47.254;11.314;2024-01-15T00:56:33;-3.30;99.90
20319;DHT22;10317;47.254;11.314;2024-01-15T00:59:00;-3.20;99.90
20319;DHT22;10317;47.254;11.314;2024-01-15T01:01:25;-3.20;99.90
20319;DHT22;10317;47.254;11.314;2024-01-15T01:03:51;-3.20;99.90
20319;DHT22;10317;47.254;11.314;2024-01-15T01:06:16;-3.20;99.90
20319;DHT22;10317;47.254;11.314;2024-01-15T01:08:42;-3.20;99.90
20319;DHT22;10317;47.254;11.314;2024-01-15T01:11:12;-3.20;99.90
20319;DHT22;10317;47.254;11.314;2024-01-15T01:13:37;-3.20;99.90
20319;DHT22;10317;47.254;11.314;2024-01-15T01:16:03;-3.10;99.90
20319;DHT22;10317;47.254;11.314;2024-01-15T01:18:29;-3.10;99.90
20319;DHT22;10317;47.254;11.314;2024-01-15T01:20:55;-3.10;99.90
20319;DHT22;10317;47.254;11.314;2024-01-15T01:23:20;-3.00;99.90
20319;DHT22;10317;47.254;11.314;2024-01-15T01:25:46;-3.00;99.90
20319;DHT22;10317;47.254;11.314;2024-01-15T01:28:12;-3.10;99.90
20319;DHT22;10317;47.254;11.314;2024-01-15T01:30:37;-3.10;99.90
20319;DHT22;10317;47.254;11.314;2024-01-15T01:33:03;-3.10;99.90
20319;DHT22;10317;47.254;11.314;2024-01-15T01:35:29;-3.10;99.90
20319;DHT22;10317;47.254;11.314;2024-01-15T01:37:54;-3.00;99.90
20319;DHT22;10317;47.254;11.314;2024-01-15T01:40:20;-3.00;99.90
20319;DHT22;10317;47.254;11.314;2024-01-15T01:42:46;-3.00;99.90
20319;DHT22;10317;47.254;11.314;2024-01-15T01:45:11;-2.90;99.90
20319;DHT22;10317;47.254;11.314;2024-01-15T01:47:37;-2.90;99.90
20319;DHT22;10317;47.254;11.314;2024-01-15T01:50:04;-2.80;99.90
20319;DHT22;10317;47.254;11.314;2024-01-15T01:52:31;-2.80;99.90
20319;DHT22;10317;47.254;11.314;2024-01-15T01:54:57;-2.80;99.90
20319;DHT22;10317;47.254;11.314;2024-01-15T01:57:24;-2.80;99.90
20319;DHT22;10317;47.254;11.314;2024-01-15T01:59:50;-2.80;99.90
20319;DHT22;10317;47.254;11.314;2024-01-15T02:02:16;-2.80;99.90
20319;DHT22;10317;47.254;11.314;2024-01-15T02:04:42;-2.90;99.90
20319;DHT22;10317;47.254;11.314;2024-01-15T02:07:08;-2.90;99.90
20319;DHT22;10317;47.254;11.314;2024-01-15T02:09:35;-3.00;99.90
20319;DHT22;10317;47.254;11.314;2024-01-15T02:12:01;-3.00;99.90
20319;DHT22;10317;47.254;11.314;2024-01-15T02:14:27;-3.00;99.90
20319;DHT22;10317;47.254;11.314;2024-01-15T02:16:52;-3.00;99.90
20319;DHT22;10317;47.254;11.314;2024-01-15T02:19:18;-3.00;99.90
20319;DHT22;10317;47.254;11.314;2024-01-15T02:21:44;-3.10;99.90
20319;DHT22;10317;47.254;11.314;2024-01-15T02:24:10;-3.10;99.90
20319;DHT22;10317;47.254;11.314;2024-01-15T02:26:37;-3.10;99.90
20319;DHT22;10317;47.254;11.314;2024-01-15T02:29:05;-3.10;99.90
20319;DHT22;10317;47.254;11.314;2024-01-15T02:31:32;-3.20;99.90
20319;DHT22;10317;47.254;11.314;2024-01-15T02:33:57;-3.20;99.90
20319;DHT22;10317;47.254;11.314;2024-01-15T02:36:23;-3.20;99.90
20319;DHT22;10317;47.254;11.314;2024-01-15T02:38:49;-3.20;99.90
20319;DHT22;10317;47.254;11.314;2024-01-15T02:41:14;-3.30;99.90
20319;DHT22;10317;47.254;11.314;2024-01-15T02:43:40;-3.30;99.90
20319;DHT22;10317;47.254;11.314;2024-01-15T02:46:06;-3.30;99.90
20319;DHT22;10317;47.254;11.314;2024-01-15T02:48:32;-3.30;99.90
20319;DHT22;10317;47.254;11.314;2024-01-15T02:51:00;-3.40;99.90
20319;DHT22;10317;47.254;11.314;2024-01-15T02:53:26;-3.40;99.90
20319;DHT22;10317;47.254;11.314;2024-01-15T02:55:52;-3.50;99.90
20319;DHT22;10317;47.254;11.314;2024-01-15T02:58:17;-3.50;99.90
20319;DHT22;10317;47.254;11.314;2024-01-15T03:00:43;-3.60;99.90
20319;DHT22;10317;47.254;11.314;2024-01-15T03:03:09;-3.60;99.90
20319;DHT22;10317;47.254;11.314;2024-01-15T03:05:35;-3.60;99.90
20319;DHT22;10317;47.254;11.314;2024-01-15T03:08:00;-3.60;99.90
20319;DHT22;10317;47.254;11.314;2024-01-15T03:10:26;-3.60;99.90
20319;DHT22;10317;47.254;11.314;2024-01-15T03:12:51;-3.60;99.90
20319;DHT22;10317;47.254;11.314;2024-01-15T03:15:17;-3.70;99.90
20319;DHT22;10317;47.254;11.314;2024-01-15T03:17:44;-3.70;99.90
20319;DHT22;10317;47.254;11.314;2024-01-15T03:20:10;-3.70;99.90
20319;DHT22;10317;47.254;11.314;2024-01-15T03:22:36;-3.80;99.90
20319;DHT22;10317;47.254;11.314;2024-01-15T03:25:01;-3.80;99.90
20319;DHT22;10317;47.254;11.314;2024-01-15T03:27:27;-3.80;99.90
20319;DHT22;10317;47.254;11.314;2024-01-15T03:29:53;-3.80;99.90
20319;DHT22;10317;47.254;11.314;2024-01-15T03:32:18;-3.80;99.90
20319;DHT22;10317;47.254;11.314;2024-01-15T03:34:47;-3.90;99.90
20319;DHT22;10317;47.254;11.314;2024-01-15T03:37:17;-3.90;99.90
20319;DHT22;10317;47.254;11.314;2024-01-15T03:39:43;-3.90;99.90
20319;DHT22;10317;47.254;11.314;2024-01-15T03:42:08;-3.80;99.90
20319;DHT22;10317;47.254;11.314;2024-01-15T03:44:34;-3.80;99.90
20319;DHT22;10317;47.254;11.314;2024-01-15T03:47:00;-3.90;99.90
20319;DHT22;10317;47.254;11.314;2024-01-15T03:49:26;-3.80;99.90
20319;DHT22;10317;47.254;11.314;2024-01-15T03:51:51;-3.80;99.90
20319;DHT22;10317;47.254;11.314;2024-01-15T03:54:17;-3.90;99.90
20319;DHT22;10317;47.254;11.314;2024-01-15T03:56:43;-3.90;99.90
20319;DHT22;10317;47.254;11.314;2024-01-15T03:59:08;-3.90;99.90
20319;DHT22;10317;47.254;11.314;2024-01-15T04:01:34;-3.90;99.90
20319;DHT22;10317;47.254;11.314;2024-01-15T04:04:00;-3.90;99.90
20319;DHT22;10317;47.254;11.314;2024-01-15T04:06:25;-4.00;99.90
20319;DHT22;10317;47.254;11.314;2024-01-15T04:08:51;-4.10;99.90
20319;DHT22;10317;47.254;11.314;2024-01-15T04:11:17;-4.10;99.90
20319;DHT22;10317;47.254;11.314;2024-01-15T04:13:42;-4.10;99.90
20319;DHT22;10317;47.254;11.314;2024-01-15T04:16:08;-4.10;99.90
20319;DHT22;10317;47.254;11.314;2024-01-15T04:18:34;-4.10;99.90
20319;DHT22;10317;47.254;11.314;2024-01-15T04:20:59;-4.20;99.90
20319;DHT22;10317;47.254;11.314;2024-01-15T04:23:25;-4.10;99.90
20319;DHT22;10317;47.254;11.314;2024-01-15T04:25:50;-4.10;99.90
20319;DHT22;10317;47.254;11.314;2024-01-15T04:28:16;-4.10;99.90
20319;DHT22;10317;47.254;11.314;2024-01-15T04:30:42;-4.20;99.90
20319;DHT22;10317;47.254;11.314;2024-01-15T04:33:07;-4.20;99.90
20319;DHT22;10317;47.254;11.314;2024-01-15T04:35:34;-4.30;99.90
20319;DHT22;10317;47.254;11.314;2024-01-15T04:37:59;-4.30;99.90
20319;DHT22;10317;47.254;11.314;2024-01-15T04:40:25;-4.30;99.90
20319;DHT22;10317;47.254;11.314;2024-01-15T04:42:53;-4.30;99.90
20319;DHT22;10317;47.254;11.314;2024-01-15T04:45:19;-4.30;99.90
20319;DHT22;10317;47.254;11.314;2024-01-15T04:47:48;-4.30;99.90
20319;DHT22;10317;47.254;11.314;2024-01-15T04:50:14;-4.30;99.90
20319;DHT22;10317;47.254;11.314;2024-01-15T04:52:40;-4.30;99.90
20319;DHT22;10317;47.254;11.314;2024-01-15T04:55:05;-4.30;99.90
20319;DHT22;10317;47.254;11.314;2024-01-15T04:57:31;-4.30;99.90
20319;DHT22;10317;47.254;11.314;2024-01-15T04:59:57;-4.30;99.90
20319;DHT22;10317;47.254;11.314;2024-01-15T05:02:23;-4.40;99.90
20319;DHT22;10317;47.254;11.314;2024-01-15T05:04:48;-4.40;99.90
20319;DHT22;10317;47.254;11.314;2024-01-15T05:07:14;-4.40;99.90
20319;DHT22;10317;47.254;11.314;2024-01-15T05:09:40;-4.40;99.90
20319;DHT22;10317;47.254;11.314;2024-01-15T05:12:05;-4.40;99.90
20319;DHT22;10317;47.254;11.314;2024-01-15T05:14:31;-4.40;99.90
20319;DHT22;10317;47.254;11.314;2024-01-15T05:16:57;-4.30;99.90
20319;DHT22;10317;47.254;11.314;2024-01-15T05:19:23;-4.30;99.90
20319;DHT22;10317;47.254;11.314;2024-01-15T05:21:48;-4.40;99.90
20319;DHT22;10317;47.254;11.314;2024-01-15T05:24:14;-4.40;99.90
20319;DHT22;10317;47.254;11.314;2024-01-15T05:26:40;-4.40;99.90
20319;DHT22;10317;47.254;11.314;2024-01-15T05:29:05;-4.40;99.90
20319;DHT22;10317;47.254;11.314;2024-01-15T05:31:31;-4.40;99.90
20319;DHT22;10317;47.254;11.314;2024-01-15T05:33:56;-4.40;99.90
20319;DHT22;10317;47.254;11.314;2024-01-15T05:36:22;-4.50;99.90
20319;DHT22;10317;47.254;11.314;2024-01-15T05:38:48;-4.50;99.90
20319;DHT22;10317;47.254;11.314;2024-01-15T05:41:15;-4.50;99.90
20319;DHT22;10317;47.254;11.314;2024-01-15T05:43:40;-4.40;99.90
20319;DHT22;10317;47.254;11.314;2024-01-15T05:46:06;-4.40;99.90
20319;DHT22;10317;47.254;11.314;2024-01-15T05:48:32;-4.40;99.90
20319;DHT22;10317;47.254;11.314;2024-01-15T05:50:57;-4.40;99.90
20319;DHT22;10317;47.254;11.314;2024-01-15T05:53:23;-4.30;99.90
20319;DHT22;10317;47.254;11.314;2024-01-15T05:55:48;-4.30;99.90
20319;DHT22;10317;47.254;11.314;2024-01-15T05:58:14;-4.30;99.90
20319;DHT22;10317;47.254;11.314;2024-01-15T06:00:40;-4.20;99.90
20319;DHT22;10317;47.254;11.314;2024-01-15T06:03:05;-4.20;99.90
20319;DHT22;10317;47.254;11.314;2024-01-15T06:05:31;-4.20;99.90
20319;DHT22;10317;47.254;11.314;2024-01-15T06:07:57;-4.10;99.90
20319;DHT22;10317;47.254;11.314;2024-01-15T06:10:22;-4.00;99.90
20319;DHT22;10317;47.254;11.314;2024-01-15T06:12:48;-4.00;99.90
20319;DHT22;10317;47.254;11.314;2024-01-15T06:15:14;-3.90;99.90
20319;DHT22;10317;47.254;11.314;2024-01-15T06:17:39;-3.80;99.90
20319;DHT22;10317;47.254;11.314;2024-01-15T06:20:05;-3.80;99.90
20319;DHT22;10317;47.254;11.314;2024-01-15T06:22:31;-3.70;99.90
20319;DHT22;10317;47.254;11.314;2024-01-15T06:24:57;-3.70;99.90
20319;DHT22;10317;47.254;11.314;2024-01-15T06:27:23;-3.60;99.90
20319;DHT22;10317;47.254;11.314;2024-01-15T06:29:49;-3.60;99.90
20319;DHT22;10317;47.254;11.314;2024-01-15T06:32:14;-3.60;99.90
20319;DHT22;10317;47.254;11.314;2024-01-15T06:34:40;-3.50;99.90
20319;DHT22;10317;47.254;11.314;2024-01-15T06:37:06;-3.50;99.90
20319;DHT22;10317;47.254;11.314;2024-01-15T06:39:32;-3.50;99.90
20319;DHT22;10317;47.254;11.314;2024-01-15T06:41:57;-3.50;99.90
20319;DHT22;10317;47.254;11.314;2024-01-15T06:44:23;-3.40;99.90
20319;DHT22;10317;47.254;11.314;2024-01-15T06:46:49;-3.40;99.90
20319;DHT22;10317;47.254;11.314;2024-01-15T06:49:14;-3.30;99.90
20319;DHT22;10317;47.254;11.314;2024-01-15T06:51:40;-3.30;99.90
20319;DHT22;10317;47.254;11.314;2024-01-15T06:54:07;-3.30;99.90
20319;DHT22;10317;47.254;11.314;2024-01-15T06:56:32;-3.20;99.90
20319;DHT22;10317;47.254;11.314;2024-01-15T06:58:58;-3.20;99.90
20319;DHT22;10317;47.254;11.314;2024-01-15T07:01:24;-3.20;99.90
20319;DHT22;10317;47.254;11.314;2024-01-15T07:03:49;-3.20;99.90
20319;DHT22;10317;47.254;11.314;2024-01-15T07:06:15;-3.10;99.90
20319;DHT22;10317;47.254;11.314;2024-01-15T07:08:42;-3.10;99.90
20319;DHT22;10317;47.254;11.314;2024-01-15T07:11:08;-3.00;99.90
20319;DHT22;10317;47.254;11.314;2024-01-15T07:13:34;-3.00;99.90
20319;DHT22;10317;47.254;11.314;2024-01-15T07:16:01;-3.00;99.90
20319;DHT22;10317;47.254;11.314;2024-01-15T07:18:27;-2.90;99.90
20319;DHT22;10317;47.254;11.314;2024-01-15T07:20:52;-2.90;99.90
20319;DHT22;10317;47.254;11.314;2024-01-15T07:23:18;-2.80;99.90
20319;DHT22;10317;47.254;11.314;2024-01-15T07:25:44;-2.70;99.90
20319;DHT22;10317;47.254;11.314;2024-01-15T07:28:09;-2.70;99.90
20319;DHT22;10317;47.254;11.314;2024-01-15T07:30:35;-2.60;99.90
20319;DHT22;10317;47.254;11.314;2024-01-15T07:33:01;-2.60;99.90
20319;DHT22;10317;47.254;11.314;2024-01-15T07:35:26;-2.50;99.90
20319;DHT22;10317;47.254;11.314;2024-01-15T07:37:52;-2.50;99.90
20319;DHT22;10317;47.254;11.314;2024-01-15T07:40:18;-2.40;99.90
20319;DHT22;10317;47.254;11.314;2024-01-15T07:42:44;-2.30;99.90
20319;DHT22;10317;47.254;11.314;2024-01-15T07:45:10;-2.30;99.90
20319;DHT22;10317;47.254;11.314;2024-01-15T07:47:36;-2.20;99.90
20319;DHT22;10317;47.254;11.314;2024-01-15T07:50:03;-2.10;99.90
20319;DHT22;10317;47.254;11.314;2024-01-15T07:52:30;-2.00;99.90
20319;DHT22;10317;47.254;11.314;2024-01-15T07:54:56;-1.90;99.90
20319;DHT22;10317;47.254;11.314;2024-01-15T07:57:21;-1.80;99.90
20319;DHT22;10317;47.254;11.314;2024-01-15T07:59:48;-1.80;99.90
20319;DHT22;10317;47.254;11.314;2024-01-15T08:02:14;-1.70;99.90
20319;DHT22;10317;47.254;11.314;2024-01-15T08:04:39;-1.60;99.90
20319;DHT22;10317;47.254;11.314;2024-01-15T08:07:05;-1.50;99.90
20319;DHT22;10317;47.254;11.314;2024-01-15T08:09:32;-1.30;99.90
20319;DHT22;10317;47.254;11.314;2024-01-15T08:11:58;-1.10;99.90
20319;DHT22;10317;47.254;11.314;2024-01-15T08:14:24;-1.00;99.90
20319;DHT22;10317;47.254;11.314;2024-01-15T08:16:49;-0.90;99.90
20319;DHT22;10317;47.254;11.314;2024-01-15T08:19:16;-0.80;99.90
20319;DHT22;10317;47.254;11.314;2024-01-15T08:21:41;-0.60;99.90
20319;DHT22;10317;47.254;11.314;2024-01-15T08:24:08;-0.50;99.90
20319;DHT22;10317;47.254;11.314;2024-01-15T08:26:33;-0.40;99.90
20319;DHT22;10317;47.254;11.314;2024-01-15T08:28:59;-0.30;99.90
20319;DHT22;10317;47.254;11.314;2024-01-15T08:31:25;-0.20;99.90
20319;DHT22;10317;47.254;11.314;2024-01-15T08:33:51;-0.20;99.90
20319;DHT22;10317;47.254;11.314;2024-01-15T08:36:17;0.00;99.90
20319;DHT22;10317;47.254;11.314;2024-01-15T08:38:43;0.10;99.90
20319;DHT22;10317;47.254;11.314;2024-01-15T08:41:10;0.20;99.90
20319;DHT22;10317;47.254;11.314;2024-01-15T08:43:36;0.20;99.90
20319;DHT22;10317;47.254;11.314;2024-01-15T08:46:02;0.10;99.90
20319;DHT22;10317;47.254;11.314;2024-01-15T08:48:28;0.10;99.90
20319;DHT22;10317;47.254;11.314;2024-01-15T08:50:54;0.00;99.90
20319;DHT22;10317;47.254;11.314;2024-01-15T08:53:20;0.10;99.90
20319;DHT22;10317;47.254;11.314;2024-01-15T08:55:46;0.30;99.90
20319;DHT22;10317;47.254;11.314;2024-01-15T08:58:13;0.30;99.90
20319;DHT22;10317;47.254;11.314;2024-01-15T09:00:38;0.40;99.90
20319;DHT22;10317;47.254;11.314;2024-01-15T09:03:04;0.50;99.90
20319;DHT22;10317;47.254;11.314;2024-01-15T09:05:30;0.60;99.90
20319;DHT22;10317;47.254;11.314;2024-01-15T09:07:56;0.80;99.90
20319;DHT22;10317;47.254;11.314;2024-01-15T09:10:22;0.90;99.90
20319;DHT22;10317;47.254;11.314;2024-01-15T09:12:47;0.90;99.90
20319;DHT22;10317;47.254;11.314;2024-01-15T09:15:14;0.90;99.90
20319;DHT22;10317;47.254;11.314;2024-01-15T09:17:40;1.00;99.90
20319;DHT22;10317;47.254;11.314;2024-01-15T09:20:06;1.00;99.90
20319;DHT22;10317;47.254;11.314;2024-01-15T09:22:32;1.00;99.90
20319;DHT22;10317;47.254;11.314;2024-01-15T09:24:58;1.00;99.90
20319;DHT22;10317;47.254;11.314;2024-01-15T09:27:24;1.10;99.90
20319;DHT22;10317;47.254;11.314;2024-01-15T09:29:52;1.10;99.90
20319;DHT22;10317;47.254;11.314;2024-01-15T09:32:18;1.10;99.90
20319;DHT22;10317;47.254;11.314;2024-01-15T09:34:45;1.20;99.90
20319;DHT22;10317;47.254;11.314;2024-01-15T09:37:11;1.20;99.90
20319;DHT22;10317;47.254;11.314;2024-01-15T09:39:37;1.20;99.90
20319;DHT22;10317;47.254;11.314;2024-01-15T09:42:03;1.10;99.90
20319;DHT22;10317;47.254;11.314;2024-01-15T09:44:29;1.00;99.90
20319;DHT22;10317;47.254;11.314;2024-01-15T09:46:56;0.90;99.90
20319;DHT22;10317;47.254;11.314;2024-01-15T09:49:22;0.90;99.90
20319;DHT22;10317;47.254;11.314;2024-01-15T09:51:48;1.00;99.90
20319;DHT22;10317;47.254;11.314;2024-01-15T09:54:15;1.10;99.90
20319;DHT22;10317;47.254;11.314;2024-01-15T09:56:45;1.30;99.90
20319;DHT22;10317;47.254;11.314;2024-01-15T09:59:15;1.40;99.90
20319;DHT22;10317;47.254;11.314;2024-01-15T10:01:42;1.50;99.90
20319;DHT22;10317;47.254;11.314;2024-01-15T10:04:10;1.70;99.90
20319;DHT22;10317;47.254;11.314;2024-01-15T10:06:36;1.80;99.90
20319;DHT22;10317;47.254;11.314;2024-01-15T10:09:03;2.00;99.90
20319;DHT22;10317;47.254;11.314;2024-01-15T10:11:30;2.00;99.90
20319;DHT22;10317;47.254;11.314;2024-01-15T10:13:57;2.10;99.90
20319;DHT22;10317;47.254;11.314;2024-01-15T10:16:23;2.20;99.90
20319;DHT22;10317;47.254;11.314;2024-01-15T10:18:49;2.40;99.90
20319;DHT22;10317;47.254;11.314;2024-01-15T10:21:15;2.60;99.90
20319;DHT22;10317;47.254;11.314;2024-01-15T10:23:41;2.90;99.90
20319;DHT22;10317;47.254;11.314;2024-01-15T10:26:07;3.00;99.90
20319;DHT22;10317;47.254;11.314;2024-01-15T10:28:33;3.10;99.90
20319;DHT22;10317;47.254;11.314;2024-01-15T10:31:00;4.20;99.90
20319;DHT22;10317;47.254;11.314;2024-01-15T10:33:26;7.30;99.90
20319;DHT22;10317;47.254;11.314;2024-01-15T10:35:56;10.90;98.50
20319;DHT22;10317;47.254;11.314;2024-01-15T10:38:23;13.70;94.40
20319;DHT22;10317;47.254;11.314;2024-01-15T10:40:54;14.50;78.50
20319;DHT22;10317;47.254;11.314;2024-01-15T10:43:20;15.10;78.90
20319;DHT22;10317;47.254;11.314;2024-01-15T10:45:47;15.40;73.20
20319;DHT22;10317;47.254;11.314;2024-01-15T10:48:13;16.70;70.50
20319;DHT22;10317;47.254;11.314;2024-01-15T10:50:40;18.20;66.60
20319;DHT22;10317;47.254;11.314;2024-01-15T10:53:06;19.30;64.50
20319;DHT22;10317;47.254;11.314;2024-01-15T10:55:33;20.20;58.50
20319;DHT22;10317;47.254;11.314;2024-01-15T10:58:00;21.60;53.90
20319;DHT22;10317;47.254;11.314;2024-01-15T11:00:27;22.50;51.50
20319;DHT22;10317;47.254;11.314;2024-01-15T11:02:53;23.30;47.50
20319;DHT22;10317;47.254;11.314;2024-01-15T11:05:22;23.00;47.00
20319;DHT22;10317;47.254;11.314;2024-01-15T11:07:49;23.40;44.10
20319;DHT22;10317;47.254;11.314;2024-01-15T11:10:42;24.30;43.80
20319;DHT22;10317;47.254;11.314;2024-01-15T11:16:10;24.70;40.60
20319;DHT22;10317;47.254;11.314;2024-01-15T11:21:22;23.80;38.70
20319;DHT22;10317;47.254;11.314;2024-01-15T11:24:00;23.10;39.10
20319;DHT22;10317;47.254;11.314;2024-01-15T11:29:08;21.30;38.50
20319;DHT22;10317;47.254;11.314;2024-01-15T11:34:10;19.90;40.00
20319;DHT22;10317;47.254;11.314;2024-01-15T11:41:58;18.60;41.30
20319;DHT22;10317;47.254;11.314;2024-01-15T11:44:24;18.20;42.00
20319;DHT22;10317;47.254;11.314;2024-01-15T11:47:05;18.00;42.80
20319;DHT22;10317;47.254;11.314;2024-01-15T11:49:59;17.80;43.00
20319;DHT22;10317;47.254;11.314;2024-01-15T11:52:34;17.00;43.50
20319;DHT22;10317;47.254;11.314;2024-01-15T11:57:37;16.10;46.10
20319;DHT22;10317;47.254;11.314;2024-01-15T12:00:07;15.90;46.50
20319;DHT22;10317;47.254;11.314;2024-01-15T12:02:34;15.70;47.00
20319;DHT22;10317;47.254;11.314;2024-01-15T12:05:00;15.50;47.90
20319;DHT22;10317;47.254;11.314;2024-01-15T12:07:25;15.30;46.90
20319;DHT22;10317;47.254;11.314;2024-01-15T12:09:51;15.10;47.90
20319;DHT22;10317;47.254;11.314;2024-01-15T12:12:34;14.70;49.60
20319;DHT22;10317;47.254;11.314;2024-01-15T12:15:02;14.30;49.50
20319;DHT22;10317;47.254;11.314;2024-01-15T12:17:27;14.20;49.90
20319;DHT22;10317;47.254;11.314;2024-01-15T12:19:54;14.00;50.30
20319;DHT22;10317;47.254;11.314;2024-01-15T12:22:20;13.80;49.70
20319;DHT22;10317;47.254;11.314;2024-01-15T12:24:45;13.40;51.50
20319;DHT22;10317;47.254;11.314;2024-01-15T12:27:11;13.20;51.60
20319;DHT22;10317;47.254;11.314;2024-01-15T12:29:38;13.00;52.00
20319;DHT22;10317;47.254;11.314;2024-01-15T12:32:05;12.40;54.80
20319;DHT22;10317;47.254;11.314;2024-01-15T12:34:32;11.90;54.40
20319;DHT22;10317;47.254;11.314;2024-01-15T12:36:58;11.40;55.40
20319;DHT22;10317;47.254;11.314;2024-01-15T12:39:24;11.10;55.40
20319;DHT22;10317;47.254;11.314;2024-01-15T12:41:51;10.30;54.60
20319;DHT22;10317;47.254;11.314;2024-01-15T12:44:17;10.00;57.00
20319;DHT22;10317;47.254;11.314;2024-01-15T12:46:43;9.90;59.40
20319;DHT22;10317;47.254;11.314;2024-01-15T12:49:08;9.50;59.60
20319;DHT22;10317;47.254;11.314;2024-01-15T12:51:34;9.20;57.90
20319;DHT22;10317;47.254;11.314;2024-01-15T12:54:00;8.50;59.20
20319;DHT22;10317;47.254;11.314;2024-01-15T12:56:26;8.10;59.10
20319;DHT22;10317;47.254;11.314;2024-01-15T12:58:51;7.70;61.70
20319;DHT22;10317;47.254;11.314;2024-01-15T13:01:17;7.10;61.40
20319;DHT22;10317;47.254;11.314;2024-01-15T13:03:43;6.70;64.90
20319;DHT22;10317;47.254;11.314;2024-01-15T13:06:08;6.30;63.10
20319;DHT22;10317;47.254;11.314;2024-01-15T13:08:34;6.00;66.60
20319;DHT22;10317;47.254;11.314;2024-01-15T13:11:00;5.80;66.50
20319;DHT22;10317;47.254;11.314;2024-01-15T13:13:25;5.70;70.30
20319;DHT22;10317;47.254;11.314;2024-01-15T13:15:51;5.50;72.20
20319;DHT22;10317;47.254;11.314;2024-01-15T13:18:17;5.40;69.70
20319;DHT22;10317;47.254;11.314;2024-01-15T13:20:43;5.40;70.60
20319;DHT22;10317;47.254;11.314;2024-01-15T13:23:09;5.40;69.20
20319;DHT22;10317;47.254;11.314;2024-01-15T13:25:35;5.40;70.50
20319;DHT22;10317;47.254;11.314;2024-01-15T13:28:07;5.20;71.10
20319;DHT22;10317;47.254;11.314;2024-01-15T13:30:33;5.00;72.40
20319;DHT22;10317;47.254;11.314;2024-01-15T13:32:59;5.00;70.60
20319;DHT22;10317;47.254;11.314;2024-01-15T13:35:29;5.00;70.60
20319;DHT22;10317;47.254;11.314;2024-01-15T13:37:55;5.00;71.90
20319;DHT22;10317;47.254;11.314;2024-01-15T13:40:21;4.80;74.60
20319;DHT22;10317;47.254;11.314;2024-01-15T13:42:47;4.70;74.00
20319;DHT22;10317;47.254;11.314;2024-01-15T13:45:14;4.70;72.00
20319;DHT22;10317;47.254;11.314;2024-01-15T13:47:42;4.60;71.00
20319;DHT22;10317;47.254;11.314;2024-01-15T13:50:09;4.60;71.70
20319;DHT22;10317;47.254;11.314;2024-01-15T13:52:35;4.70;73.30
20319;DHT22;10317;47.254;11.314;2024-01-15T13:55:01;4.70;73.10
20319;DHT22;10317;47.254;11.314;2024-01-15T13:57:27;4.70;73.70
20319;DHT22;10317;47.254;11.314;2024-01-15T13:59:53;4.70;73.50
20319;DHT22;10317;47.254;11.314;2024-01-15T14:02:18;4.70;75.50
20319;DHT22;10317;47.254;11.314;2024-01-15T14:04:45;4.70;75.70
20319;DHT22;10317;47.254;11.314;2024-01-15T14:07:11;4.60;74.00
20319;DHT22;10317;47.254;11.314;2024-01-15T14:09:37;4.50;72.70
20319;DHT22;10317;47.254;11.314;2024-01-15T14:12:03;4.50;73.20
20319;DHT22;10317;47.254;11.314;2024-01-15T14:14:29;4.40;73.50
20319;DHT22;10317;47.254;11.314;2024-01-15T14:16:55;4.30;74.10
20319;DHT22;10317;47.254;11.314;2024-01-15T14:19:20;4.10;74.90
20319;DHT22;10317;47.254;11.314;2024-01-15T14:21:46;4.00;73.60
20319;DHT22;10317;47.254;11.314;2024-01-15T14:24:12;3.90;73.50
20319;DHT22;10317;47.254;11.314;2024-01-15T14:26:37;3.70;74.50
20319;DHT22;10317;47.254;11.314;2024-01-15T14:29:03;3.60;76.30
20319;DHT22;10317;47.254;11.314;2024-01-15T14:31:29;3.50;77.70
20319;DHT22;10317;47.254;11.314;2024-01-15T14:33:54;3.40;77.50
20319;DHT22;10317;47.254;11.314;2024-01-15T14:36:20;3.30;76.80
20319;DHT22;10317;47.254;11.314;2024-01-15T14:38:46;3.20;78.80
20319;DHT22;10317;47.254;11.314;2024-01-15T14:41:12;3.10;81.10
20319;DHT22;10317;47.254;11.314;2024-01-15T14:43:38;3.00;83.20
20319;DHT22;10317;47.254;11.314;2024-01-15T14:46:04;2.90;83.70
20319;DHT22;10317;47.254;11.314;2024-01-15T14:48:29;2.80;83.40
20319;DHT22;10317;47.254;11.314;2024-01-15T14:50:55;2.70;83.50
20319;DHT22;10317;47.254;11.314;2024-01-15T14:53:21;2.70;85.40
20319;DHT22;10317;47.254;11.314;2024-01-15T14:55:47;2.60;86.50
20319;DHT22;10317;47.254;11.314;2024-01-15T14:58:12;2.60;89.80
20319;DHT22;10317;47.254;11.314;2024-01-15T15:00:38;2.50;90.60
20319;DHT22;10317;47.254;11.314;2024-01-15T15:03:03;2.40;90.10
20319;DHT22;10317;47.254;11.314;2024-01-15T15:05:29;2.40;90.70
20319;DHT22;10317;47.254;11.314;2024-01-15T15:07:55;2.30;92.10
20319;DHT22;10317;47.254;11.314;2024-01-15T15:10:21;2.30;92.90
20319;DHT22;10317;47.254;11.314;2024-01-15T15:12:47;2.20;93.90
20319;DHT22;10317;47.254;11.314;2024-01-15T15:15:13;2.20;94.30
20319;DHT22;10317;47.254;11.314;2024-01-15T15:17:39;2.10;93.70
20319;DHT22;10317;47.254;11.314;2024-01-15T15:20:06;2.10;94.00
20319;DHT22;10317;47.254;11.314;2024-01-15T15:22:32;2.00;95.70
20319;DHT22;10317;47.254;11.314;2024-01-15T15:24:58;2.00;95.00
20319;DHT22;10317;47.254;11.314;2024-01-15T15:27:23;1.90;96.10
20319;DHT22;10317;47.254;11.314;2024-01-15T15:29:49;1.90;96.50
20319;DHT22;10317;47.254;11.314;2024-01-15T15:32:16;1.80;96.80